Seiyu Maru — JD3189 — position and weather

sailwx.info

Track history (hours):
 
Tides and Currents Weather Stations Pressure Air Temp Water Temp Dewpoint Dewpoint Depression Visibility Wind Speed Wind Dir Waves Ship Positions

Seiyu Maru

Last reported at 2016-Aug-20 11:08 UTC. Time now 2016-Sep-01 05:41 UTC.
Position N 34°35' E 134°51'.
Warning: this ship's position is 11 days out of date.

Length 75 m; draft 4.5 m.

Type: Cargo ship. MMSI: 431002433.

Date/timePositionNaut miles runAvg speedWind from/ knotsBaromVisibWave heightAir tempDewpointWater temp
2016-Aug-20 11:08N 34°35' E 134°51'813.8
2016-Aug-20 10:34N 34°38' E 134°60'1211.6
2016-Aug-20 09:33N 34°36' E 135°14'9 9.2
2016-Aug-20 08:33N 34°38' E 135°25'0 0.0
2016-Aug-20 07:33N 34°38' E 135°25'0 0.0
2016-Aug-20 06:33N 34°38' E 135°25'0 0.0
2016-Aug-20 05:33N 34°38' E 135°25'0 0.0
2016-Aug-20 04:33N 34°38' E 135°25'0 0.0
2016-Aug-20 03:33N 34°38' E 135°25'0 0.0
2016-Aug-20 02:33N 34°38' E 135°25'0 0.0
2016-Aug-20 01:33N 34°38' E 135°25'1 1.2
2016-Aug-20 00:33N 34°39' E 135°24'3 3.0
2016-Aug-19 23:33N 34°39' E 135°28'0 0.0
2016-Aug-19 22:33N 34°39' E 135°28'0 0.0
2016-Aug-19 21:33N 34°39' E 135°28'0 0.0
2016-Aug-19 20:33N 34°39' E 135°28'0 0.0
2016-Aug-19 19:32N 34°39' E 135°28'0 0.0
2016-Aug-19 18:33N 34°39' E 135°28'0 0.0
2016-Aug-19 17:33N 34°39' E 135°28'0 0.0
2016-Aug-19 16:33N 34°39' E 135°28'0 0.0
2016-Aug-19 15:33N 34°39' E 135°28'0 0.0
2016-Aug-19 14:33N 34°39' E 135°28'0 0.0
2016-Aug-19 13:33N 34°39' E 135°28'0 0.0
2016-Aug-19 12:33N 34°39' E 135°28'0 0.0
2016-Aug-19 11:33N 34°39' E 135°28'0 0.0
2016-Aug-19 10:33N 34°39' E 135°28'0 0.0
2016-Aug-19 09:33N 34°39' E 135°28'0 0.0
2016-Aug-19 08:33N 34°39' E 135°28'0 0.0
2016-Aug-19 07:33N 34°39' E 135°28'0 0.0
2016-Aug-19 06:33N 34°39' E 135°28'0 0.0
2016-Aug-19 05:33N 34°39' E 135°28'0 0.0
2016-Aug-19 04:28N 34°39' E 135°28'0 0.0
2016-Aug-19 03:33N 34°39' E 135°28'0 0.0
2016-Aug-19 02:33N 34°39' E 135°28'0 0.0
2016-Aug-19 01:33N 34°39' E 135°28'0 0.0
2016-Aug-19 00:33N 34°39' E 135°28'0 0.0
2016-Aug-18 23:33N 34°39' E 135°28'0 0.0
2016-Aug-18 22:33N 34°39' E 135°28'0 0.0
2016-Aug-18 21:33N 34°39' E 135°28'0 0.0
2016-Aug-18 20:33N 34°39' E 135°28'0 0.0
2016-Aug-18 19:33N 34°39' E 135°28'0 0.0
2016-Aug-18 18:33N 34°39' E 135°28'0 0.0
2016-Aug-18 17:33N 34°39' E 135°28'0 0.0
2016-Aug-18 16:33N 34°39' E 135°28'0 0.0
2016-Aug-18 15:33N 34°39' E 135°28'0 0.0
2016-Aug-18 14:33N 34°39' E 135°28'0 0.0
2016-Aug-18 13:33N 34°39' E 135°28'0 0.0
2016-Aug-18 12:33N 34°39' E 135°28'0 0.0
2016-Aug-18 11:33N 34°39' E 135°28'0 0.0
2016-Aug-18 10:33N 34°39' E 135°28'0 0.0
2016-Aug-18 09:33N 34°39' E 135°28'0 0.0
2016-Aug-18 08:33N 34°39' E 135°28'0 0.0
2016-Aug-18 07:33N 34°39' E 135°28'0 0.0
2016-Aug-18 06:33N 34°39' E 135°28'0 0.1
2016-Aug-18 05:33N 34°39' E 135°28'1 0.6
2016-Aug-18 04:33N 34°39' E 135°27'1010.1
2016-Aug-18 03:33N 34°35' E 135°15'1212.0
2016-Aug-18 02:33N 34°37' E 135°01'  
Track history (hours):
 
Tides and Currents Weather Stations Pressure Air Temp Water Temp Dewpoint Dewpoint Depression Visibility Wind Speed Wind Dir Waves Ship Positions

Seiyu Maru

Last reported at 2016-Aug-20 11:08 UTC. Time now 2016-Sep-01 05:41 UTC.
Position N 34°35' E 134°51'.
Warning: this ship's position is 11 days out of date.

Length 75 m; draft 4.5 m.

Type: Cargo ship. MMSI: 431002433.

Date/timePositionNaut miles runAvg speedWind from/ knotsBaromVisibWave heightAir tempDewpointWater temp
2016-Aug-20 11:08N 34°35' E 134°51'813.8
2016-Aug-20 10:34N 34°38' E 134°60'1211.6
2016-Aug-20 09:33N 34°36' E 135°14'9 9.2
2016-Aug-20 08:33N 34°38' E 135°25'0 0.0
2016-Aug-20 07:33N 34°38' E 135°25'0 0.0
2016-Aug-20 06:33N 34°38' E 135°25'0 0.0
2016-Aug-20 05:33N 34°38' E 135°25'0 0.0
2016-Aug-20 04:33N 34°38' E 135°25'0 0.0
2016-Aug-20 03:33N 34°38' E 135°25'0 0.0
2016-Aug-20 02:33N 34°38' E 135°25'0 0.0
2016-Aug-20 01:33N 34°38' E 135°25'1 1.2
2016-Aug-20 00:33N 34°39' E 135°24'3 3.0
2016-Aug-19 23:33N 34°39' E 135°28'0 0.0
2016-Aug-19 22:33N 34°39' E 135°28'0 0.0
2016-Aug-19 21:33N 34°39' E 135°28'0 0.0
2016-Aug-19 20:33N 34°39' E 135°28'0 0.0
2016-Aug-19 19:32N 34°39' E 135°28'0 0.0
2016-Aug-19 18:33N 34°39' E 135°28'0 0.0
2016-Aug-19 17:33N 34°39' E 135°28'0 0.0
2016-Aug-19 16:33N 34°39' E 135°28'0 0.0
2016-Aug-19 15:33N 34°39' E 135°28'0 0.0
2016-Aug-19 14:33N 34°39' E 135°28'0 0.0
2016-Aug-19 13:33N 34°39' E 135°28'0 0.0
2016-Aug-19 12:33N 34°39' E 135°28'0 0.0
2016-Aug-19 11:33N 34°39' E 135°28'0 0.0
2016-Aug-19 10:33N 34°39' E 135°28'0 0.0
2016-Aug-19 09:33N 34°39' E 135°28'0 0.0
2016-Aug-19 08:33N 34°39' E 135°28'0 0.0
2016-Aug-19 07:33N 34°39' E 135°28'0 0.0
2016-Aug-19 06:33N 34°39' E 135°28'0 0.0
2016-Aug-19 05:33N 34°39' E 135°28'0 0.0
2016-Aug-19 04:28N 34°39' E 135°28'0 0.0
2016-Aug-19 03:33N 34°39' E 135°28'0 0.0
2016-Aug-19 02:33N 34°39' E 135°28'0 0.0
2016-Aug-19 01:33N 34°39' E 135°28'0 0.0
2016-Aug-19 00:33N 34°39' E 135°28'0 0.0
2016-Aug-18 23:33N 34°39' E 135°28'0 0.0
2016-Aug-18 22:33N 34°39' E 135°28'0 0.0
2016-Aug-18 21:33N 34°39' E 135°28'0 0.0
2016-Aug-18 20:33N 34°39' E 135°28'0 0.0
2016-Aug-18 19:33N 34°39' E 135°28'0 0.0
2016-Aug-18 18:33N 34°39' E 135°28'0 0.0
2016-Aug-18 17:33N 34°39' E 135°28'0 0.0
2016-Aug-18 16:33N 34°39' E 135°28'0 0.0
2016-Aug-18 15:33N 34°39' E 135°28'0 0.0
2016-Aug-18 14:33N 34°39' E 135°28'0 0.0
2016-Aug-18 13:33N 34°39' E 135°28'0 0.0
2016-Aug-18 12:33N 34°39' E 135°28'0 0.0
2016-Aug-18 11:33N 34°39' E 135°28'0 0.0
2016-Aug-18 10:33N 34°39' E 135°28'0 0.0
2016-Aug-18 09:33N 34°39' E 135°28'0 0.0
2016-Aug-18 08:33N 34°39' E 135°28'0 0.0
2016-Aug-18 07:33N 34°39' E 135°28'0 0.0
2016-Aug-18 06:33N 34°39' E 135°28'0 0.1
2016-Aug-18 05:33N 34°39' E 135°28'1 0.6
2016-Aug-18 04:33N 34°39' E 135°27'1010.1
2016-Aug-18 03:33N 34°35' E 135°15'1212.0
2016-Aug-18 02:33N 34°37' E 135°01'  

Dump ship's entire track history